sensor_id;sensor_type;location;lat;lon;timestamp;P1;durP1;ratioP1;P2;durP2;ratioP2
15944;SDS011;30172;48.832;8.732;2023-02-08T00:00:10;16.90;;;9.73;;
15944;SDS011;30172;48.832;8.732;2023-02-08T00:02:35;15.03;;;10.47;;
15944;SDS011;30172;48.832;8.732;2023-02-08T00:05:01;15.87;;;9.97;;
15944;SDS011;30172;48.832;8.732;2023-02-08T00:07:26;16.10;;;10.17;;
15944;SDS011;30172;48.832;8.732;2023-02-08T00:09:51;15.20;;;10.07;;
15944;SDS011;30172;48.832;8.732;2023-02-08T00:12:17;17.13;;;10.03;;
15944;SDS011;30172;48.832;8.732;2023-02-08T00:14:42;15.10;;;9.50;;
15944;SDS011;30172;48.832;8.732;2023-02-08T00:17:07;17.33;;;10.47;;
15944;SDS011;30172;48.832;8.732;2023-02-08T00:19:33;15.97;;;10.20;;
15944;SDS011;30172;48.832;8.732;2023-02-08T00:21:58;19.40;;;10.10;;
15944;SDS011;30172;48.832;8.732;2023-02-08T00:24:23;14.53;;;9.67;;
15944;SDS011;30172;48.832;8.732;2023-02-08T00:26:49;16.30;;;9.57;;
15944;SDS011;30172;48.832;8.732;2023-02-08T00:29:14;15.93;;;9.97;;
15944;SDS011;30172;48.832;8.732;2023-02-08T00:31:39;12.93;;;9.63;;
15944;SDS011;30172;48.832;8.732;2023-02-08T00:34:04;13.60;;;9.57;;
15944;SDS011;30172;48.832;8.732;2023-02-08T00:36:30;18.07;;;9.47;;
15944;SDS011;30172;48.832;8.732;2023-02-08T00:38:55;18.63;;;11.43;;
15944;SDS011;30172;48.832;8.732;2023-02-08T00:41:20;18.17;;;11.43;;
15944;SDS011;30172;48.832;8.732;2023-02-08T00:43:46;17.13;;;11.10;;
15944;SDS011;30172;48.832;8.732;2023-02-08T00:46:11;17.93;;;10.97;;
15944;SDS011;30172;48.832;8.732;2023-02-08T00:48:36;15.03;;;10.03;;
15944;SDS011;30172;48.832;8.732;2023-02-08T00:51:03;17.37;;;9.67;;
15944;SDS011;30172;48.832;8.732;2023-02-08T00:53:29;16.33;;;10.00;;
15944;SDS011;30172;48.832;8.732;2023-02-08T00:55:55;14.60;;;10.50;;
15944;SDS011;30172;48.832;8.732;2023-02-08T00:58:21;13.73;;;8.83;;
15944;SDS011;30172;48.832;8.732;2023-02-08T01:00:48;16.07;;;10.00;;
15944;SDS011;30172;48.832;8.732;2023-02-08T01:03:15;16.77;;;10.10;;
15944;SDS011;30172;48.832;8.732;2023-02-08T01:05:40;13.83;;;9.63;;
15944;SDS011;30172;48.832;8.732;2023-02-08T01:08:05;14.43;;;9.27;;
15944;SDS011;30172;48.832;8.732;2023-02-08T01:10:31;15.90;;;10.57;;
15944;SDS011;30172;48.832;8.732;2023-02-08T01:12:57;18.63;;;10.33;;
15944;SDS011;30172;48.832;8.732;2023-02-08T01:15:22;19.43;;;10.57;;
15944;SDS011;30172;48.832;8.732;2023-02-08T01:17:48;14.83;;;10.73;;
15944;SDS011;30172;48.832;8.732;2023-02-08T01:20:18;16.20;;;10.43;;
15944;SDS011;30172;48.832;8.732;2023-02-08T01:22:43;16.20;;;9.73;;
15944;SDS011;30172;48.832;8.732;2023-02-08T01:25:08;16.30;;;9.90;;
15944;SDS011;30172;48.832;8.732;2023-02-08T01:27:34;14.50;;;9.60;;
15944;SDS011;30172;48.832;8.732;2023-02-08T01:30:00;14.40;;;8.80;;
15944;SDS011;30172;48.832;8.732;2023-02-08T01:32:25;16.03;;;9.00;;
15944;SDS011;30172;48.832;8.732;2023-02-08T01:34:51;15.00;;;9.17;;
15944;SDS011;30172;48.832;8.732;2023-02-08T01:37:16;15.60;;;9.10;;
15944;SDS011;30172;48.832;8.732;2023-02-08T01:39:41;15.50;;;9.83;;
15944;SDS011;30172;48.832;8.732;2023-02-08T01:42:09;14.20;;;8.57;;
15944;SDS011;30172;48.832;8.732;2023-02-08T01:47:21;13.80;;;8.93;;
15944;SDS011;30172;48.832;8.732;2023-02-08T01:49:46;15.87;;;9.27;;
15944;SDS011;30172;48.832;8.732;2023-02-08T01:52:13;14.63;;;8.90;;
15944;SDS011;30172;48.832;8.732;2023-02-08T01:55:04;13.57;;;8.83;;
15944;SDS011;30172;48.832;8.732;2023-02-08T01:57:47;13.47;;;8.67;;
15944;SDS011;30172;48.832;8.732;2023-02-08T02:00:17;12.93;;;8.10;;
15944;SDS011;30172;48.832;8.732;2023-02-08T02:02:46;13.53;;;8.70;;
15944;SDS011;30172;48.832;8.732;2023-02-08T02:05:13;11.17;;;7.00;;
15944;SDS011;30172;48.832;8.732;2023-02-08T02:07:42;13.67;;;8.47;;
15944;SDS011;30172;48.832;8.732;2023-02-08T02:12:34;12.17;;;8.07;;
15944;SDS011;30172;48.832;8.732;2023-02-08T02:15:01;10.13;;;7.30;;
15944;SDS011;30172;48.832;8.732;2023-02-08T02:17:27;12.57;;;8.20;;
15944;SDS011;30172;48.832;8.732;2023-02-08T02:25:15;13.30;;;8.27;;
15944;SDS011;30172;48.832;8.732;2023-02-08T02:36:17;11.47;;;7.20;;
15944;SDS011;30172;48.832;8.732;2023-02-08T02:41:40;12.63;;;8.27;;
15944;SDS011;30172;48.832;8.732;2023-02-08T02:44:46;12.87;;;8.43;;
15944;SDS011;30172;48.832;8.732;2023-02-08T02:47:26;12.00;;;7.47;;
15944;SDS011;30172;48.832;8.732;2023-02-08T02:50:17;11.27;;;8.13;;
15944;SDS011;30172;48.832;8.732;2023-02-08T02:52:47;13.90;;;8.13;;
15944;SDS011;30172;48.832;8.732;2023-02-08T02:55:19;11.97;;;7.63;;
15944;SDS011;30172;48.832;8.732;2023-02-08T02:57:46;11.33;;;7.73;;
15944;SDS011;30172;48.832;8.732;2023-02-08T03:00:17;11.40;;;8.10;;
15944;SDS011;30172;48.832;8.732;2023-02-08T03:02:46;11.17;;;7.47;;
15944;SDS011;30172;48.832;8.732;2023-02-08T03:05:11;14.50;;;8.00;;
15944;SDS011;30172;48.832;8.732;2023-02-08T03:07:49;13.63;;;8.57;;
15944;SDS011;30172;48.832;8.732;2023-02-08T03:10:55;13.63;;;8.07;;
15944;SDS011;30172;48.832;8.732;2023-02-08T03:13:29;10.40;;;7.30;;
15944;SDS011;30172;48.832;8.732;2023-02-08T03:21:11;14.33;;;8.53;;
15944;SDS011;30172;48.832;8.732;2023-02-08T03:23:48;13.10;;;7.57;;
15944;SDS011;30172;48.832;8.732;2023-02-08T03:26:22;13.63;;;8.53;;
15944;SDS011;30172;48.832;8.732;2023-02-08T03:31:44;13.27;;;7.57;;
15944;SDS011;30172;48.832;8.732;2023-02-08T03:34:15;11.97;;;7.90;;
15944;SDS011;30172;48.832;8.732;2023-02-08T03:39:22;14.23;;;9.20;;
15944;SDS011;30172;48.832;8.732;2023-02-08T03:41:51;12.53;;;7.60;;
15944;SDS011;30172;48.832;8.732;2023-02-08T03:44:32;13.27;;;8.67;;
15944;SDS011;30172;48.832;8.732;2023-02-08T03:47:01;14.77;;;8.90;;
15944;SDS011;30172;48.832;8.732;2023-02-08T03:49:32;16.37;;;9.03;;
15944;SDS011;30172;48.832;8.732;2023-02-08T03:51:59;13.57;;;8.57;;
15944;SDS011;30172;48.832;8.732;2023-02-08T03:54:27;13.60;;;8.23;;
15944;SDS011;30172;48.832;8.732;2023-02-08T03:59:33;15.37;;;8.63;;
15944;SDS011;30172;48.832;8.732;2023-02-08T04:02:01;16.83;;;8.90;;
15944;SDS011;30172;48.832;8.732;2023-02-08T04:04:28;15.57;;;8.73;;
15944;SDS011;30172;48.832;8.732;2023-02-08T04:06:56;13.20;;;8.70;;
15944;SDS011;30172;48.832;8.732;2023-02-08T04:09:22;13.73;;;8.27;;
15944;SDS011;30172;48.832;8.732;2023-02-08T04:11:47;12.27;;;8.13;;
15944;SDS011;30172;48.832;8.732;2023-02-08T04:14:12;13.43;;;8.13;;
15944;SDS011;30172;48.832;8.732;2023-02-08T04:16:37;14.73;;;8.83;;
15944;SDS011;30172;48.832;8.732;2023-02-08T04:19:03;11.80;;;8.40;;
15944;SDS011;30172;48.832;8.732;2023-02-08T04:21:28;12.13;;;8.13;;
15944;SDS011;30172;48.832;8.732;2023-02-08T04:23:53;14.27;;;8.53;;
15944;SDS011;30172;48.832;8.732;2023-02-08T04:26:19;14.33;;;8.13;;
15944;SDS011;30172;48.832;8.732;2023-02-08T04:28:44;13.03;;;8.27;;
15944;SDS011;30172;48.832;8.732;2023-02-08T04:31:09;14.73;;;8.33;;
15944;SDS011;30172;48.832;8.732;2023-02-08T04:33:34;13.03;;;8.00;;
15944;SDS011;30172;48.832;8.732;2023-02-08T04:36:00;15.40;;;8.13;;
15944;SDS011;30172;48.832;8.732;2023-02-08T04:38:25;14.43;;;8.60;;
15944;SDS011;30172;48.832;8.732;2023-02-08T04:40:50;13.47;;;8.40;;
15944;SDS011;30172;48.832;8.732;2023-02-08T04:43:16;11.80;;;7.53;;
15944;SDS011;30172;48.832;8.732;2023-02-08T04:45:41;13.70;;;8.03;;
15944;SDS011;30172;48.832;8.732;2023-02-08T04:48:07;14.87;;;8.93;;
15944;SDS011;30172;48.832;8.732;2023-02-08T04:50:33;13.03;;;8.57;;
15944;SDS011;30172;48.832;8.732;2023-02-08T04:52:58;14.57;;;8.87;;
15944;SDS011;30172;48.832;8.732;2023-02-08T04:55:24;13.77;;;8.10;;
15944;SDS011;30172;48.832;8.732;2023-02-08T04:57:49;15.47;;;9.03;;
15944;SDS011;30172;48.832;8.732;2023-02-08T05:00:15;13.37;;;8.60;;
15944;SDS011;30172;48.832;8.732;2023-02-08T05:02:40;13.03;;;8.43;;
15944;SDS011;30172;48.832;8.732;2023-02-08T05:05:05;14.80;;;8.60;;
15944;SDS011;30172;48.832;8.732;2023-02-08T05:07:31;12.13;;;8.23;;
15944;SDS011;30172;48.832;8.732;2023-02-08T05:09:56;17.20;;;9.40;;
15944;SDS011;30172;48.832;8.732;2023-02-08T05:12:22;11.63;;;7.77;;
15944;SDS011;30172;48.832;8.732;2023-02-08T05:14:47;13.53;;;8.33;;
15944;SDS011;30172;48.832;8.732;2023-02-08T05:17:12;14.30;;;8.60;;
15944;SDS011;30172;48.832;8.732;2023-02-08T05:19:37;10.33;;;7.57;;
15944;SDS011;30172;48.832;8.732;2023-02-08T05:22:03;14.27;;;7.93;;
15944;SDS011;30172;48.832;8.732;2023-02-08T05:24:28;10.23;;;7.03;;
15944;SDS011;30172;48.832;8.732;2023-02-08T05:26:53;12.47;;;7.73;;
15944;SDS011;30172;48.832;8.732;2023-02-08T05:29:19;15.93;;;8.10;;
15944;SDS011;30172;48.832;8.732;2023-02-08T05:31:44;12.90;;;8.30;;
15944;SDS011;30172;48.832;8.732;2023-02-08T05:34:09;14.27;;;8.20;;
15944;SDS011;30172;48.832;8.732;2023-02-08T05:36:36;11.73;;;7.40;;
15944;SDS011;30172;48.832;8.732;2023-02-08T05:39:01;13.50;;;8.23;;
15944;SDS011;30172;48.832;8.732;2023-02-08T05:41:26;11.63;;;7.83;;
15944;SDS011;30172;48.832;8.732;2023-02-08T05:43:52;16.87;;;7.40;;
15944;SDS011;30172;48.832;8.732;2023-02-08T05:46:17;13.00;;;7.97;;
15944;SDS011;30172;48.832;8.732;2023-02-08T05:48:42;14.27;;;8.10;;
15944;SDS011;30172;48.832;8.732;2023-02-08T05:51:08;10.37;;;6.90;;
15944;SDS011;30172;48.832;8.732;2023-02-08T05:53:33;12.73;;;7.63;;
15944;SDS011;30172;48.832;8.732;2023-02-08T05:55:58;12.53;;;7.67;;
15944;SDS011;30172;48.832;8.732;2023-02-08T05:58:24;14.80;;;7.90;;
15944;SDS011;30172;48.832;8.732;2023-02-08T06:00:49;14.30;;;7.80;;
15944;SDS011;30172;48.832;8.732;2023-02-08T06:03:14;11.13;;;7.70;;
15944;SDS011;30172;48.832;8.732;2023-02-08T06:05:40;14.23;;;8.07;;
15944;SDS011;30172;48.832;8.732;2023-02-08T06:08:06;11.73;;;7.67;;
15944;SDS011;30172;48.832;8.732;2023-02-08T06:10:31;12.90;;;8.53;;
15944;SDS011;30172;48.832;8.732;2023-02-08T06:12:57;12.97;;;7.50;;
15944;SDS011;30172;48.832;8.732;2023-02-08T06:15:22;15.77;;;9.27;;
15944;SDS011;30172;48.832;8.732;2023-02-08T06:17:47;11.80;;;7.90;;
15944;SDS011;30172;48.832;8.732;2023-02-08T06:20:13;12.17;;;8.00;;
15944;SDS011;30172;48.832;8.732;2023-02-08T06:22:38;13.70;;;7.67;;
15944;SDS011;30172;48.832;8.732;2023-02-08T06:25:04;12.07;;;7.73;;
15944;SDS011;30172;48.832;8.732;2023-02-08T06:27:29;15.07;;;8.30;;
15944;SDS011;30172;48.832;8.732;2023-02-08T06:29:54;13.50;;;8.10;;
15944;SDS011;30172;48.832;8.732;2023-02-08T06:32:20;13.07;;;7.77;;
15944;SDS011;30172;48.832;8.732;2023-02-08T06:34:45;13.97;;;8.20;;
15944;SDS011;30172;48.832;8.732;2023-02-08T06:37:12;16.17;;;8.77;;
15944;SDS011;30172;48.832;8.732;2023-02-08T06:39:37;14.07;;;8.43;;
15944;SDS011;30172;48.832;8.732;2023-02-08T06:42:02;14.80;;;8.77;;
15944;SDS011;30172;48.832;8.732;2023-02-08T06:44:28;14.37;;;8.30;;
15944;SDS011;30172;48.832;8.732;2023-02-08T06:46:53;12.97;;;8.33;;
15944;SDS011;30172;48.832;8.732;2023-02-08T06:49:19;12.10;;;7.57;;
15944;SDS011;30172;48.832;8.732;2023-02-08T06:51:44;13.20;;;8.50;;
15944;SDS011;30172;48.832;8.732;2023-02-08T06:54:09;15.50;;;8.40;;
15944;SDS011;30172;48.832;8.732;2023-02-08T06:56:35;14.10;;;8.90;;
15944;SDS011;30172;48.832;8.732;2023-02-08T06:59:00;12.43;;;8.40;;
15944;SDS011;30172;48.832;8.732;2023-02-08T07:01:25;17.23;;;8.30;;
15944;SDS011;30172;48.832;8.732;2023-02-08T07:03:51;13.33;;;8.37;;
15944;SDS011;30172;48.832;8.732;2023-02-08T07:06:16;15.77;;;8.77;;
15944;SDS011;30172;48.832;8.732;2023-02-08T07:08:43;14.13;;;9.07;;
15944;SDS011;30172;48.832;8.732;2023-02-08T07:11:10;16.13;;;8.67;;
15944;SDS011;30172;48.832;8.732;2023-02-08T07:13:40;14.80;;;8.90;;
15944;SDS011;30172;48.832;8.732;2023-02-08T07:16:05;13.97;;;9.00;;
15944;SDS011;30172;48.832;8.732;2023-02-08T07:18:32;15.53;;;8.40;;
15944;SDS011;30172;48.832;8.732;2023-02-08T07:20:57;17.03;;;9.73;;
15944;SDS011;30172;48.832;8.732;2023-02-08T07:23:23;16.00;;;9.17;;
15944;SDS011;30172;48.832;8.732;2023-02-08T07:26:02;16.43;;;9.13;;
15944;SDS011;30172;48.832;8.732;2023-02-08T07:28:29;16.77;;;9.20;;
15944;SDS011;30172;48.832;8.732;2023-02-08T07:30:55;15.47;;;8.73;;
15944;SDS011;30172;48.832;8.732;2023-02-08T07:33:20;18.10;;;9.53;;
15944;SDS011;30172;48.832;8.732;2023-02-08T07:35:46;13.60;;;8.47;;
15944;SDS011;30172;48.832;8.732;2023-02-08T07:38:11;13.53;;;8.93;;
15944;SDS011;30172;48.832;8.732;2023-02-08T07:40:36;12.10;;;8.27;;
15944;SDS011;30172;48.832;8.732;2023-02-08T07:43:02;15.40;;;8.37;;
15944;SDS011;30172;48.832;8.732;2023-02-08T07:45:27;14.23;;;8.00;;
15944;SDS011;30172;48.832;8.732;2023-02-08T07:47:53;15.63;;;8.83;;
15944;SDS011;30172;48.832;8.732;2023-02-08T07:50:18;12.03;;;7.73;;
15944;SDS011;30172;48.832;8.732;2023-02-08T07:52:43;12.87;;;8.47;;
15944;SDS011;30172;48.832;8.732;2023-02-08T07:55:10;15.63;;;8.83;;
15944;SDS011;30172;48.832;8.732;2023-02-08T07:57:41;14.77;;;8.70;;
15944;SDS011;30172;48.832;8.732;2023-02-08T08:00:09;15.73;;;9.07;;
15944;SDS011;30172;48.832;8.732;2023-02-08T08:02:35;15.13;;;7.90;;
15944;SDS011;30172;48.832;8.732;2023-02-08T08:05:00;13.63;;;7.87;;
15944;SDS011;30172;48.832;8.732;2023-02-08T08:07:26;13.97;;;8.40;;
15944;SDS011;30172;48.832;8.732;2023-02-08T08:09:51;15.80;;;8.33;;
15944;SDS011;30172;48.832;8.732;2023-02-08T08:12:16;13.83;;;8.03;;
15944;SDS011;30172;48.832;8.732;2023-02-08T08:14:42;13.70;;;8.50;;
15944;SDS011;30172;48.832;8.732;2023-02-08T08:17:07;14.37;;;9.20;;
15944;SDS011;30172;48.832;8.732;2023-02-08T08:19:32;14.33;;;8.33;;
15944;SDS011;30172;48.832;8.732;2023-02-08T08:21:58;14.53;;;8.70;;
15944;SDS011;30172;48.832;8.732;2023-02-08T08:24:23;14.07;;;8.80;;
15944;SDS011;30172;48.832;8.732;2023-02-08T08:26:48;13.43;;;8.33;;
15944;SDS011;30172;48.832;8.732;2023-02-08T08:29:14;15.33;;;9.00;;
15944;SDS011;30172;48.832;8.732;2023-02-08T08:31:41;15.17;;;8.47;;
15944;SDS011;30172;48.832;8.732;2023-02-08T08:34:07;13.60;;;7.93;;
15944;SDS011;30172;48.832;8.732;2023-02-08T08:36:32;16.27;;;8.50;;
15944;SDS011;30172;48.832;8.732;2023-02-08T08:38:57;13.27;;;8.03;;
15944;SDS011;30172;48.832;8.732;2023-02-08T08:41:22;14.20;;;8.43;;
15944;SDS011;30172;48.832;8.732;2023-02-08T08:43:51;17.03;;;8.87;;
15944;SDS011;30172;48.832;8.732;2023-02-08T08:46:16;13.23;;;8.07;;
15944;SDS011;30172;48.832;8.732;2023-02-08T08:48:41;14.33;;;8.13;;
15944;SDS011;30172;48.832;8.732;2023-02-08T08:51:07;13.97;;;9.03;;
15944;SDS011;30172;48.832;8.732;2023-02-08T08:53:32;14.03;;;8.50;;
15944;SDS011;30172;48.832;8.732;2023-02-08T08:55:58;14.80;;;8.80;;
15944;SDS011;30172;48.832;8.732;2023-02-08T08:58:23;13.23;;;8.27;;
15944;SDS011;30172;48.832;8.732;2023-02-08T09:00:48;16.13;;;8.73;;
15944;SDS011;30172;48.832;8.732;2023-02-08T09:03:14;15.30;;;8.50;;
15944;SDS011;30172;48.832;8.732;2023-02-08T09:05:39;14.30;;;9.37;;
15944;SDS011;30172;48.832;8.732;2023-02-08T09:08:05;13.63;;;8.53;;
15944;SDS011;30172;48.832;8.732;2023-02-08T09:10:30;18.73;;;9.77;;
15944;SDS011;30172;48.832;8.732;2023-02-08T09:12:57;15.43;;;9.13;;
15944;SDS011;30172;48.832;8.732;2023-02-08T09:15:22;14.43;;;8.83;;
15944;SDS011;30172;48.832;8.732;2023-02-08T09:17:48;13.03;;;7.77;;
15944;SDS011;30172;48.832;8.732;2023-02-08T09:20:13;13.83;;;8.90;;
15944;SDS011;30172;48.832;8.732;2023-02-08T09:22:38;12.73;;;8.30;;
15944;SDS011;30172;48.832;8.732;2023-02-08T09:25:04;14.90;;;9.53;;
15944;SDS011;30172;48.832;8.732;2023-02-08T09:27:31;12.37;;;7.97;;
15944;SDS011;30172;48.832;8.732;2023-02-08T09:29:56;15.23;;;9.10;;
15944;SDS011;30172;48.832;8.732;2023-02-08T09:32:22;13.30;;;8.37;;
15944;SDS011;30172;48.832;8.732;2023-02-08T09:34:47;14.23;;;9.20;;
15944;SDS011;30172;48.832;8.732;2023-02-08T09:37:12;15.83;;;8.13;;
15944;SDS011;30172;48.832;8.732;2023-02-08T09:39:41;16.47;;;9.53;;
15944;SDS011;30172;48.832;8.732;2023-02-08T09:42:14;14.77;;;9.20;;
15944;SDS011;30172;48.832;8.732;2023-02-08T09:45:19;17.87;;;12.27;;
15944;SDS011;30172;48.832;8.732;2023-02-08T09:51:03;15.37;;;9.67;;
15944;SDS011;30172;48.832;8.732;2023-02-08T09:53:38;16.13;;;9.80;;
15944;SDS011;30172;48.832;8.732;2023-02-08T09:56:05;14.53;;;8.83;;
15944;SDS011;30172;48.832;8.732;2023-02-08T09:58:38;15.20;;;9.43;;
15944;SDS011;30172;48.832;8.732;2023-02-08T10:01:06;16.03;;;8.63;;
15944;SDS011;30172;48.832;8.732;2023-02-08T10:03:38;15.23;;;9.13;;
15944;SDS011;30172;48.832;8.732;2023-02-08T10:06:07;15.80;;;8.60;;
15944;SDS011;30172;48.832;8.732;2023-02-08T10:08:35;14.23;;;8.70;;
15944;SDS011;30172;48.832;8.732;2023-02-08T10:14:13;18.43;;;8.93;;
15944;SDS011;30172;48.832;8.732;2023-02-08T10:17:21;14.07;;;8.13;;
15944;SDS011;30172;48.832;8.732;2023-02-08T10:20:03;15.87;;;9.10;;
15944;SDS011;30172;48.832;8.732;2023-02-08T10:23:02;13.57;;;8.37;;
15944;SDS011;30172;48.832;8.732;2023-02-08T10:25:59;15.87;;;8.77;;
15944;SDS011;30172;48.832;8.732;2023-02-08T10:28:44;15.63;;;8.47;;
15944;SDS011;30172;48.832;8.732;2023-02-08T10:34:47;13.27;;;7.03;;
15944;SDS011;30172;48.832;8.732;2023-02-08T10:36:53;12.07;;;7.70;;
15944;SDS011;30172;48.832;8.732;2023-02-08T10:39:23;12.23;;;8.07;;
15944;SDS011;30172;48.832;8.732;2023-02-08T10:41:51;13.93;;;8.13;;
15944;SDS011;30172;48.832;8.732;2023-02-08T10:44:20;12.03;;;7.97;;
15944;SDS011;30172;48.832;8.732;2023-02-08T10:46:51;12.43;;;8.07;;
15944;SDS011;30172;48.832;8.732;2023-02-08T10:49:21;15.67;;;9.03;;
15944;SDS011;30172;48.832;8.732;2023-02-08T10:51:49;16.50;;;8.20;;
15944;SDS011;30172;48.832;8.732;2023-02-08T10:54:15;17.07;;;9.40;;
15944;SDS011;30172;48.832;8.732;2023-02-08T10:59:32;12.93;;;7.90;;
15944;SDS011;30172;48.832;8.732;2023-02-08T11:02:00;13.90;;;9.47;;
15944;SDS011;30172;48.832;8.732;2023-02-08T11:04:25;13.67;;;8.80;;
15944;SDS011;30172;48.832;8.732;2023-02-08T11:06:51;13.67;;;9.10;;
15944;SDS011;30172;48.832;8.732;2023-02-08T11:09:22;14.23;;;8.97;;
15944;SDS011;30172;48.832;8.732;2023-02-08T11:11:48;13.77;;;8.27;;
15944;SDS011;30172;48.832;8.732;2023-02-08T11:14:25;12.50;;;8.10;;
15944;SDS011;30172;48.832;8.732;2023-02-08T11:16:56;15.47;;;8.83;;
15944;SDS011;30172;48.832;8.732;2023-02-08T11:19:29;14.10;;;9.23;;
15944;SDS011;30172;48.832;8.732;2023-02-08T11:21:55;16.90;;;9.80;;
15944;SDS011;30172;48.832;8.732;2023-02-08T11:24:39;15.50;;;9.20;;
15944;SDS011;30172;48.832;8.732;2023-02-08T11:32:37;14.97;;;8.63;;
15944;SDS011;30172;48.832;8.732;2023-02-08T11:35:36;19.20;;;10.17;;
15944;SDS011;30172;48.832;8.732;2023-02-08T11:37:57;14.17;;;9.53;;
15944;SDS011;30172;48.832;8.732;2023-02-08T11:40:24;13.10;;;9.30;;
15944;SDS011;30172;48.832;8.732;2023-02-08T11:42:52;15.20;;;9.23;;
15944;SDS011;30172;48.832;8.732;2023-02-08T11:45:26;15.00;;;8.93;;
15944;SDS011;30172;48.832;8.732;2023-02-08T11:47:53;14.10;;;8.80;;
15944;SDS011;30172;48.832;8.732;2023-02-08T11:50:26;15.47;;;9.63;;
15944;SDS011;30172;48.832;8.732;2023-02-08T11:52:58;15.07;;;9.43;;
15944;SDS011;30172;48.832;8.732;2023-02-08T11:55:26;14.70;;;9.27;;
15944;SDS011;30172;48.832;8.732;2023-02-08T11:57:59;11.57;;;8.20;;
15944;SDS011;30172;48.832;8.732;2023-02-08T12:00:29;12.50;;;8.43;;
15944;SDS011;30172;48.832;8.732;2023-02-08T12:03:00;17.40;;;9.40;;
15944;SDS011;30172;48.832;8.732;2023-02-08T12:08:14;15.97;;;10.33;;
15944;SDS011;30172;48.832;8.732;2023-02-08T12:21:40;15.77;;;9.70;;
15944;SDS011;30172;48.832;8.732;2023-02-08T12:32:39;17.53;;;9.20;;
15944;SDS011;30172;48.832;8.732;2023-02-08T12:37:58;15.63;;;8.57;;
15944;SDS011;30172;48.832;8.732;2023-02-08T12:40:52;13.67;;;8.77;;
15944;SDS011;30172;48.832;8.732;2023-02-08T12:43:39;15.83;;;10.53;;
15944;SDS011;30172;48.832;8.732;2023-02-08T12:46:23;15.43;;;10.53;;
15944;SDS011;30172;48.832;8.732;2023-02-08T12:49:15;16.50;;;9.97;;
15944;SDS011;30172;48.832;8.732;2023-02-08T12:52:01;17.90;;;9.33;;
15944;SDS011;30172;48.832;8.732;2023-02-08T12:57:34;16.97;;;9.60;;
15944;SDS011;30172;48.832;8.732;2023-02-08T13:02:31;16.50;;;10.73;;
15944;SDS011;30172;48.832;8.732;2023-02-08T13:05:01;15.80;;;9.17;;
15944;SDS011;30172;48.832;8.732;2023-02-08T13:07:30;13.07;;;8.73;;
15944;SDS011;30172;48.832;8.732;2023-02-08T13:10:10;15.23;;;9.47;;
15944;SDS011;30172;48.832;8.732;2023-02-08T13:12:41;17.90;;;10.07;;
15944;SDS011;30172;48.832;8.732;2023-02-08T13:15:19;14.27;;;9.53;;
15944;SDS011;30172;48.832;8.732;2023-02-08T13:17:50;15.53;;;9.93;;
15944;SDS011;30172;48.832;8.732;2023-02-08T13:23:15;15.13;;;9.27;;
15944;SDS011;30172;48.832;8.732;2023-02-08T13:25:51;15.93;;;9.33;;
15944;SDS011;30172;48.832;8.732;2023-02-08T13:28:23;13.30;;;7.83;;
15944;SDS011;30172;48.832;8.732;2023-02-08T13:31:10;15.70;;;8.97;;
15944;SDS011;30172;48.832;8.732;2023-02-08T13:33:42;12.80;;;8.57;;
15944;SDS011;30172;48.832;8.732;2023-02-08T13:36:20;16.30;;;8.10;;
15944;SDS011;30172;48.832;8.732;2023-02-08T13:38:48;14.27;;;8.57;;
15944;SDS011;30172;48.832;8.732;2023-02-08T13:41:18;12.00;;;7.50;;
15944;SDS011;30172;48.832;8.732;2023-02-08T13:43:47;12.67;;;9.10;;
15944;SDS011;30172;48.832;8.732;2023-02-08T13:46:17;12.33;;;8.50;;
15944;SDS011;30172;48.832;8.732;2023-02-08T13:48:45;11.93;;;7.40;;
15944;SDS011;30172;48.832;8.732;2023-02-08T13:59:02;12.63;;;7.53;;
15944;SDS011;30172;48.832;8.732;2023-02-08T14:02:09;12.57;;;;;
15944;SDS011;30172;48.832;8.732;2023-02-08T14:04:47;10.73;;;7.33;;
15944;SDS011;30172;48.832;8.732;2023-02-08T14:07:19;11.27;;;7.10;;
15944;SDS011;30172;48.832;8.732;2023-02-08T14:12:55;9.17;;;6.37;;
15944;SDS011;30172;48.832;8.732;2023-02-08T14:15:26;9.63;;;6.73;;
15944;SDS011;30172;48.832;8.732;2023-02-08T14:17:54;11.53;;;6.27;;
15944;SDS011;30172;48.832;8.732;2023-02-08T14:20:30;9.97;;;6.50;;
15944;SDS011;30172;48.832;8.732;2023-02-08T14:23:20;8.97;;;6.30;;
15944;SDS011;30172;48.832;8.732;2023-02-08T14:25:45;9.40;;;6.37;;
15944;SDS011;30172;48.832;8.732;2023-02-08T14:28:21;8.33;;;5.83;;
15944;SDS011;30172;48.832;8.732;2023-02-08T14:30:58;10.43;;;6.07;;
15944;SDS011;30172;48.832;8.732;2023-02-08T14:33:27;10.17;;;6.67;;
15944;SDS011;30172;48.832;8.732;2023-02-08T14:35:56;9.17;;;5.50;;
15944;SDS011;30172;48.832;8.732;2023-02-08T14:40:51;8.10;;;5.43;;
15944;SDS011;30172;48.832;8.732;2023-02-08T14:45:44;8.03;;;5.40;;
15944;SDS011;30172;48.832;8.732;2023-02-08T14:53:43;9.50;;;5.70;;
15944;SDS011;30172;48.832;8.732;2023-02-08T14:56:31;9.83;;;6.60;;
15944;SDS011;30172;48.832;8.732;2023-02-08T14:59:11;8.40;;;5.83;;
15944;SDS011;30172;48.832;8.732;2023-02-08T15:04:23;9.23;;;5.87;;
15944;SDS011;30172;48.832;8.732;2023-02-08T15:09:44;8.00;;;4.60;;
15944;SDS011;30172;48.832;8.732;2023-02-08T15:12:14;6.97;;;4.80;;
15944;SDS011;30172;48.832;8.732;2023-02-08T15:14:43;9.20;;;5.40;;
15944;SDS011;30172;48.832;8.732;2023-02-08T15:17:18;8.37;;;5.07;;
15944;SDS011;30172;48.832;8.732;2023-02-08T15:19:45;7.93;;;5.00;;
15944;SDS011;30172;48.832;8.732;2023-02-08T15:24:55;7.83;;;4.77;;
15944;SDS011;30172;48.832;8.732;2023-02-08T15:27:49;10.27;;;5.33;;
15944;SDS011;30172;48.832;8.732;2023-02-08T15:30:21;9.57;;;5.00;;
15944;SDS011;30172;48.832;8.732;2023-02-08T15:32:54;11.00;;;5.07;;
15944;SDS011;30172;48.832;8.732;2023-02-08T15:35:20;11.03;;;5.30;;
15944;SDS011;30172;48.832;8.732;2023-02-08T15:37:48;8.50;;;5.40;;
15944;SDS011;30172;48.832;8.732;2023-02-08T15:40:21;9.80;;;6.67;;
15944;SDS011;30172;48.832;8.732;2023-02-08T15:42:47;8.23;;;5.60;;
15944;SDS011;30172;48.832;8.732;2023-02-08T15:45:25;9.20;;;5.90;;
15944;SDS011;30172;48.832;8.732;2023-02-08T15:47:54;11.63;;;5.60;;
15944;SDS011;30172;48.832;8.732;2023-02-08T15:50:20;7.67;;;5.00;;
15944;SDS011;30172;48.832;8.732;2023-02-08T15:52:46;8.97;;;5.67;;
15944;SDS011;30172;48.832;8.732;2023-02-08T15:55:15;12.57;;;7.47;;
15944;SDS011;30172;48.832;8.732;2023-02-08T15:57:45;8.40;;;6.07;;
15944;SDS011;30172;48.832;8.732;2023-02-08T16:00:21;8.03;;;5.60;;
15944;SDS011;30172;48.832;8.732;2023-02-08T16:02:52;8.90;;;5.17;;
15944;SDS011;30172;48.832;8.732;2023-02-08T16:05:20;9.97;;;6.00;;
15944;SDS011;30172;48.832;8.732;2023-02-08T16:07:48;11.00;;;5.70;;
15944;SDS011;30172;48.832;8.732;2023-02-08T16:10:23;12.43;;;6.10;;
15944;SDS011;30172;48.832;8.732;2023-02-08T16:12:57;10.10;;;6.67;;
15944;SDS011;30172;48.832;8.732;2023-02-08T16:15:37;10.20;;;6.03;;
15944;SDS011;30172;48.832;8.732;2023-02-08T16:20:57;11.07;;;6.47;;
15944;SDS011;30172;48.832;8.732;2023-02-08T16:23:25;12.20;;;7.20;;
15944;SDS011;30172;48.832;8.732;2023-02-08T16:25:52;15.73;;;7.30;;
15944;SDS011;30172;48.832;8.732;2023-02-08T16:28:27;12.50;;;8.20;;
15944;SDS011;30172;48.832;8.732;2023-02-08T16:30:55;10.37;;;6.83;;
15944;SDS011;30172;48.832;8.732;2023-02-08T16:33:22;13.93;;;6.93;;
15944;SDS011;30172;48.832;8.732;2023-02-08T16:35:48;11.00;;;7.17;;
15944;SDS011;30172;48.832;8.732;2023-02-08T16:38:21;12.10;;;7.53;;
15944;SDS011;30172;48.832;8.732;2023-02-08T16:40:51;12.63;;;7.97;;
15944;SDS011;30172;48.832;8.732;2023-02-08T16:43:22;14.30;;;7.50;;
15944;SDS011;30172;48.832;8.732;2023-02-08T16:48:52;11.83;;;7.67;;